sensor_id;sensor_type;location;lat;lon;timestamp;P1;durP1;ratioP1;P2;durP2;ratioP2
37791;SDS011;29527;55.766;37.570;2022-09-09T00:00:09;2.80;;;1.63;;
37791;SDS011;29527;55.766;37.570;2022-09-09T00:02:38;1.63;;;1.50;;
37791;SDS011;29527;55.766;37.570;2022-09-09T00:05:38;2.58;;;1.70;;
37791;SDS011;29527;55.766;37.570;2022-09-09T00:08:02;3.03;;;1.90;;
37791;SDS011;29527;55.766;37.570;2022-09-09T00:20:43;2.72;;;1.90;;
37791;SDS011;29527;55.766;37.570;2022-09-09T00:23:25;3.60;;;2.00;;
37791;SDS011;29527;55.766;37.570;2022-09-09T00:26:02;3.33;;;1.95;;
37791;SDS011;29527;55.766;37.570;2022-09-09T00:31:37;3.63;;;1.88;;
37791;SDS011;29527;55.766;37.570;2022-09-09T00:34:07;4.13;;;1.90;;
37791;SDS011;29527;55.766;37.570;2022-09-09T00:36:38;2.40;;;1.80;;
37791;SDS011;29527;55.766;37.570;2022-09-09T00:39:04;1.90;;;1.60;;
37791;SDS011;29527;55.766;37.570;2022-09-09T00:41:47;3.45;;;1.73;;
37791;SDS011;29527;55.766;37.570;2022-09-09T00:52:20;3.47;;;2.30;;
37791;SDS011;29527;55.766;37.570;2022-09-09T00:57:51;4.80;;;2.25;;
37791;SDS011;29527;55.766;37.570;2022-09-09T01:00:21;4.43;;;2.65;;
37791;SDS011;29527;55.766;37.570;2022-09-09T01:05:45;3.38;;;2.28;;
37791;SDS011;29527;55.766;37.570;2022-09-09T01:08:32;4.85;;;2.63;;
37791;SDS011;29527;55.766;37.570;2022-09-09T01:17:20;2.72;;;2.25;;
37791;SDS011;29527;55.766;37.570;2022-09-09T01:28:08;3.95;;;2.20;;
37791;SDS011;29527;55.766;37.570;2022-09-09T01:30:38;2.90;;;2.05;;
37791;SDS011;29527;55.766;37.570;2022-09-09T01:33:05;3.55;;;2.60;;
37791;SDS011;29527;55.766;37.570;2022-09-09T01:38:21;5.15;;;2.40;;
37791;SDS011;29527;55.766;37.570;2022-09-09T01:40:48;3.88;;;2.40;;
37791;SDS011;29527;55.766;37.570;2022-09-09T01:43:17;4.18;;;2.30;;
37791;SDS011;29527;55.766;37.570;2022-09-09T01:45:44;2.58;;;2.20;;
37791;SDS011;29527;55.766;37.570;2022-09-09T01:48:11;3.85;;;2.55;;
37791;SDS011;29527;55.766;37.570;2022-09-09T01:50:37;5.32;;;2.45;;
37791;SDS011;29527;55.766;37.570;2022-09-09T01:53:02;4.47;;;2.58;;
37791;SDS011;29527;55.766;37.570;2022-09-09T01:55:33;4.40;;;2.53;;
37791;SDS011;29527;55.766;37.570;2022-09-09T02:01:17;3.67;;;2.25;;
37791;SDS011;29527;55.766;37.570;2022-09-09T02:03:54;5.55;;;2.35;;
37791;SDS011;29527;55.766;37.570;2022-09-09T02:06:27;4.97;;;2.40;;
37791;SDS011;29527;55.766;37.570;2022-09-09T02:08:59;3.22;;;2.50;;
37791;SDS011;29527;55.766;37.570;2022-09-09T02:11:29;6.25;;;2.30;;
37791;SDS011;29527;55.766;37.570;2022-09-09T02:14:06;4.85;;;2.28;;
37791;SDS011;29527;55.766;37.570;2022-09-09T02:17:09;3.70;;;2.20;;
37791;SDS011;29527;55.766;37.570;2022-09-09T02:19:33;5.72;;;2.40;;
37791;SDS011;29527;55.766;37.570;2022-09-09T02:22:02;6.97;;;2.92;;
37791;SDS011;29527;55.766;37.570;2022-09-09T02:24:29;6.57;;;3.45;;
37791;SDS011;29527;55.766;37.570;2022-09-09T02:27:00;7.40;;;3.65;;
37791;SDS011;29527;55.766;37.570;2022-09-09T02:29:33;4.65;;;3.30;;
37791;SDS011;29527;55.766;37.570;2022-09-09T02:32:02;5.85;;;3.42;;
37791;SDS011;29527;55.766;37.570;2022-09-09T02:34:34;8.80;;;3.33;;
37791;SDS011;29527;55.766;37.570;2022-09-09T02:37:02;4.55;;;3.30;;
37791;SDS011;29527;55.766;37.570;2022-09-09T02:39:29;5.25;;;3.40;;
37791;SDS011;29527;55.766;37.570;2022-09-09T02:41:54;5.50;;;3.60;;
37791;SDS011;29527;55.766;37.570;2022-09-09T02:44:20;7.60;;;4.03;;
37791;SDS011;29527;55.766;37.570;2022-09-09T02:52:06;5.68;;;3.10;;
37791;SDS011;29527;55.766;37.570;2022-09-09T02:54:34;6.45;;;3.75;;
37791;SDS011;29527;55.766;37.570;2022-09-09T02:59:41;4.90;;;3.38;;
37791;SDS011;29527;55.766;37.570;2022-09-09T03:02:09;6.53;;;3.53;;
37791;SDS011;29527;55.766;37.570;2022-09-09T03:04:36;6.00;;;3.03;;
37791;SDS011;29527;55.766;37.570;2022-09-09T03:07:03;7.43;;;3.08;;
37791;SDS011;29527;55.766;37.570;2022-09-09T03:09:28;5.07;;;3.25;;
37791;SDS011;29527;55.766;37.570;2022-09-09T03:11:54;9.30;;;3.17;;
37791;SDS011;29527;55.766;37.570;2022-09-09T03:14:20;4.45;;;2.80;;
37791;SDS011;29527;55.766;37.570;2022-09-09T03:16:50;4.72;;;3.00;;
37791;SDS011;29527;55.766;37.570;2022-09-09T03:19:18;3.60;;;2.80;;
37791;SDS011;29527;55.766;37.570;2022-09-09T03:21:45;7.72;;;3.33;;
37791;SDS011;29527;55.766;37.570;2022-09-09T03:24:11;5.72;;;3.20;;
37791;SDS011;29527;55.766;37.570;2022-09-09T03:26:38;5.07;;;3.17;;
37791;SDS011;29527;55.766;37.570;2022-09-09T03:29:05;4.65;;;3.22;;
37791;SDS011;29527;55.766;37.570;2022-09-09T03:31:32;9.75;;;3.42;;
37791;SDS011;29527;55.766;37.570;2022-09-09T03:33:58;8.50;;;3.47;;
37791;SDS011;29527;55.766;37.570;2022-09-09T03:36:24;8.85;;;3.33;;
37791;SDS011;29527;55.766;37.570;2022-09-09T03:38:51;6.88;;;2.90;;
37791;SDS011;29527;55.766;37.570;2022-09-09T03:41:17;4.28;;;3.20;;
37791;SDS011;29527;55.766;37.570;2022-09-09T03:43:43;5.53;;;2.97;;
37791;SDS011;29527;55.766;37.570;2022-09-09T03:46:08;5.00;;;2.83;;
37791;SDS011;29527;55.766;37.570;2022-09-09T03:48:34;8.10;;;3.38;;
37791;SDS011;29527;55.766;37.570;2022-09-09T03:50:59;5.00;;;2.83;;
37791;SDS011;29527;55.766;37.570;2022-09-09T03:53:26;5.72;;;2.88;;
37791;SDS011;29527;55.766;37.570;2022-09-09T03:55:53;7.72;;;2.85;;
37791;SDS011;29527;55.766;37.570;2022-09-09T03:58:20;5.88;;;2.70;;
37791;SDS011;29527;55.766;37.570;2022-09-09T04:00:55;6.43;;;3.00;;
37791;SDS011;29527;55.766;37.570;2022-09-09T04:03:23;5.40;;;2.90;;
37791;SDS011;29527;55.766;37.570;2022-09-09T04:05:52;6.20;;;3.22;;
37791;SDS011;29527;55.766;37.570;2022-09-09T04:08:19;5.80;;;2.95;;
37791;SDS011;29527;55.766;37.570;2022-09-09T04:10:46;5.00;;;3.22;;
37791;SDS011;29527;55.766;37.570;2022-09-09T04:13:13;7.70;;;2.83;;
37791;SDS011;29527;55.766;37.570;2022-09-09T04:15:43;4.15;;;2.78;;
37791;SDS011;29527;55.766;37.570;2022-09-09T04:18:10;5.28;;;3.00;;
37791;SDS011;29527;55.766;37.570;2022-09-09T04:20:36;6.70;;;3.25;;
37791;SDS011;29527;55.766;37.570;2022-09-09T04:23:02;5.97;;;2.75;;
37791;SDS011;29527;55.766;37.570;2022-09-09T04:25:28;4.65;;;2.88;;
37791;SDS011;29527;55.766;37.570;2022-09-09T04:27:54;4.47;;;2.63;;
37791;SDS011;29527;55.766;37.570;2022-09-09T04:30:20;5.82;;;2.50;;
37791;SDS011;29527;55.766;37.570;2022-09-09T04:32:46;8.18;;;2.60;;
37791;SDS011;29527;55.766;37.570;2022-09-09T04:35:11;4.00;;;2.53;;
37791;SDS011;29527;55.766;37.570;2022-09-09T04:37:37;9.93;;;2.80;;
37791;SDS011;29527;55.766;37.570;2022-09-09T04:40:02;5.50;;;2.58;;
37791;SDS011;29527;55.766;37.570;2022-09-09T04:42:28;4.07;;;2.40;;
37791;SDS011;29527;55.766;37.570;2022-09-09T04:44:54;7.28;;;2.40;;
37791;SDS011;29527;55.766;37.570;2022-09-09T04:47:19;6.15;;;2.40;;
37791;SDS011;29527;55.766;37.570;2022-09-09T04:49:45;2.90;;;2.20;;
37791;SDS011;29527;55.766;37.570;2022-09-09T04:52:10;6.22;;;2.15;;
37791;SDS011;29527;55.766;37.570;2022-09-09T04:54:36;2.10;;;1.50;;
37791;SDS011;29527;55.766;37.570;2022-09-09T04:57:01;5.22;;;1.80;;
37791;SDS011;29527;55.766;37.570;2022-09-09T04:59:27;2.83;;;1.83;;
37791;SDS011;29527;55.766;37.570;2022-09-09T05:01:52;5.30;;;1.83;;
37791;SDS011;29527;55.766;37.570;2022-09-09T05:04:20;6.40;;;2.08;;
37791;SDS011;29527;55.766;37.570;2022-09-09T05:06:46;5.55;;;2.10;;
37791;SDS011;29527;55.766;37.570;2022-09-09T05:09:11;5.53;;;1.27;;
37791;SDS011;29527;55.766;37.570;2022-09-09T05:11:37;3.10;;;1.45;;
37791;SDS011;29527;55.766;37.570;2022-09-09T05:14:03;4.95;;;1.17;;
37791;SDS011;29527;55.766;37.570;2022-09-09T05:16:29;2.63;;;1.00;;
37791;SDS011;29527;55.766;37.570;2022-09-09T05:18:56;3.33;;;1.08;;
37791;SDS011;29527;55.766;37.570;2022-09-09T05:21:22;4.70;;;1.27;;
37791;SDS011;29527;55.766;37.570;2022-09-09T05:23:50;2.08;;;1.30;;
37791;SDS011;29527;55.766;37.570;2022-09-09T05:26:17;3.13;;;1.35;;
37791;SDS011;29527;55.766;37.570;2022-09-09T05:28:44;4.03;;;1.35;;
37791;SDS011;29527;55.766;37.570;2022-09-09T05:31:10;3.42;;;1.17;;
37791;SDS011;29527;55.766;37.570;2022-09-09T05:33:38;2.97;;;1.30;;
37791;SDS011;29527;55.766;37.570;2022-09-09T05:36:09;4.65;;;1.10;;
37791;SDS011;29527;55.766;37.570;2022-09-09T05:38:38;3.25;;;1.15;;
37791;SDS011;29527;55.766;37.570;2022-09-09T05:41:04;4.78;;;1.40;;
37791;SDS011;29527;55.766;37.570;2022-09-09T05:43:30;2.90;;;1.27;;
37791;SDS011;29527;55.766;37.570;2022-09-09T05:48:34;4.47;;;1.50;;
37791;SDS011;29527;55.766;37.570;2022-09-09T05:51:02;2.95;;;1.20;;
37791;SDS011;29527;55.766;37.570;2022-09-09T05:53:28;2.90;;;1.30;;
37791;SDS011;29527;55.766;37.570;2022-09-09T05:56:05;2.72;;;1.10;;
37791;SDS011;29527;55.766;37.570;2022-09-09T05:58:33;2.72;;;0.90;;
37791;SDS011;29527;55.766;37.570;2022-09-09T06:01:00;6.97;;;1.48;;
37791;SDS011;29527;55.766;37.570;2022-09-09T06:03:29;1.65;;;1.20;;
37791;SDS011;29527;55.766;37.570;2022-09-09T06:05:58;1.75;;;1.23;;
37791;SDS011;29527;55.766;37.570;2022-09-09T06:08:25;2.85;;;1.13;;
37791;SDS011;29527;55.766;37.570;2022-09-09T06:10:51;4.70;;;1.48;;
37791;SDS011;29527;55.766;37.570;2022-09-09T06:13:17;4.38;;;1.40;;
37791;SDS011;29527;55.766;37.570;2022-09-09T06:15:49;4.03;;;1.30;;
37791;SDS011;29527;55.766;37.570;2022-09-09T06:18:17;2.37;;;1.33;;
37791;SDS011;29527;55.766;37.570;2022-09-09T06:20:53;2.90;;;1.23;;
37791;SDS011;29527;55.766;37.570;2022-09-09T06:23:19;1.50;;;0.90;;
37791;SDS011;29527;55.766;37.570;2022-09-09T06:25:45;2.95;;;1.13;;
37791;SDS011;29527;55.766;37.570;2022-09-09T06:28:11;1.00;;;0.90;;
37791;SDS011;29527;55.766;37.570;2022-09-09T06:30:36;3.45;;;1.35;;
37791;SDS011;29527;55.766;37.570;2022-09-09T06:33:02;3.28;;;1.60;;
37791;SDS011;29527;55.766;37.570;2022-09-09T06:35:27;2.78;;;1.25;;
37791;SDS011;29527;55.766;37.570;2022-09-09T06:37:53;6.05;;;1.40;;
37791;SDS011;29527;55.766;37.570;2022-09-09T06:40:19;2.53;;;1.15;;
37791;SDS011;29527;55.766;37.570;2022-09-09T06:42:44;1.70;;;1.20;;
37791;SDS011;29527;55.766;37.570;2022-09-09T06:45:10;2.47;;;1.08;;
37791;SDS011;29527;55.766;37.570;2022-09-09T06:47:36;1.52;;;0.75;;
37791;SDS011;29527;55.766;37.570;2022-09-09T06:50:01;1.10;;;1.00;;
37791;SDS011;29527;55.766;37.570;2022-09-09T06:52:28;1.85;;;0.70;;
37791;SDS011;29527;55.766;37.570;2022-09-09T06:54:53;2.65;;;0.70;;
37791;SDS011;29527;55.766;37.570;2022-09-09T06:57:19;2.10;;;0.60;;
37791;SDS011;29527;55.766;37.570;2022-09-09T06:59:45;0.50;;;0.50;;
37791;SDS011;29527;55.766;37.570;2022-09-09T07:02:10;0.85;;;0.60;;
37791;SDS011;29527;55.766;37.570;2022-09-09T07:04:36;1.05;;;0.73;;
37791;SDS011;29527;55.766;37.570;2022-09-09T07:07:02;2.75;;;0.80;;
37791;SDS011;29527;55.766;37.570;2022-09-09T07:09:27;1.10;;;0.70;;
37791;SDS011;29527;55.766;37.570;2022-09-09T07:11:54;2.33;;;0.60;;
37791;SDS011;29527;55.766;37.570;2022-09-09T07:14:20;2.78;;;0.63;;
37791;SDS011;29527;55.766;37.570;2022-09-09T07:16:47;1.30;;;0.57;;
37791;SDS011;29527;55.766;37.570;2022-09-09T07:19:12;3.42;;;0.60;;
37791;SDS011;29527;55.766;37.570;2022-09-09T07:21:39;2.50;;;0.80;;
37791;SDS011;29527;55.766;37.570;2022-09-09T07:24:08;0.82;;;0.60;;
37791;SDS011;29527;55.766;37.570;2022-09-09T07:26:35;2.70;;;0.90;;
37791;SDS011;29527;55.766;37.570;2022-09-09T07:29:01;2.40;;;0.70;;
37791;SDS011;29527;55.766;37.570;2022-09-09T07:31:31;2.92;;;0.93;;
37791;SDS011;29527;55.766;37.570;2022-09-09T07:33:59;2.42;;;0.73;;
37791;SDS011;29527;55.766;37.570;2022-09-09T07:36:26;0.90;;;0.63;;
37791;SDS011;29527;55.766;37.570;2022-09-09T07:38:57;3.25;;;0.80;;
37791;SDS011;29527;55.766;37.570;2022-09-09T07:43:59;0.98;;;0.70;;
37791;SDS011;29527;55.766;37.570;2022-09-09T07:46:28;2.72;;;0.85;;
37791;SDS011;29527;55.766;37.570;2022-09-09T07:48:54;2.53;;;1.00;;
37791;SDS011;29527;55.766;37.570;2022-09-09T07:51:22;1.20;;;1.10;;
37791;SDS011;29527;55.766;37.570;2022-09-09T07:53:53;1.67;;;1.48;;
37791;SDS011;29527;55.766;37.570;2022-09-09T07:56:20;2.60;;;1.45;;
37791;SDS011;29527;55.766;37.570;2022-09-09T07:58:49;1.92;;;0.43;;
37791;SDS011;29527;55.766;37.570;2022-09-09T08:01:20;1.13;;;0.90;;
37791;SDS011;29527;55.766;37.570;2022-09-09T08:03:52;0.90;;;0.80;;
37791;SDS011;29527;55.766;37.570;2022-09-09T08:06:26;1.48;;;0.60;;
37791;SDS011;29527;55.766;37.570;2022-09-09T08:08:53;1.50;;;0.60;;
37791;SDS011;29527;55.766;37.570;2022-09-09T08:11:21;5.07;;;0.50;;
37791;SDS011;29527;55.766;37.570;2022-09-09T08:13:50;0.75;;;0.47;;
37791;SDS011;29527;55.766;37.570;2022-09-09T08:16:18;2.92;;;0.70;;
37791;SDS011;29527;55.766;37.570;2022-09-09T08:18:47;1.30;;;0.60;;
37791;SDS011;29527;55.766;37.570;2022-09-09T08:21:14;1.30;;;0.70;;
37791;SDS011;29527;55.766;37.570;2022-09-09T08:23:43;3.05;;;0.90;;
37791;SDS011;29527;55.766;37.570;2022-09-09T08:26:17;1.35;;;0.63;;
37791;SDS011;29527;55.766;37.570;2022-09-09T08:28:51;1.20;;;0.80;;
37791;SDS011;29527;55.766;37.570;2022-09-09T08:33:46;4.25;;;3.85;;
37791;SDS011;29527;55.766;37.570;2022-09-09T08:36:13;4.50;;;2.72;;
37791;SDS011;29527;55.766;37.570;2022-09-09T08:38:40;1.65;;;1.40;;
37791;SDS011;29527;55.766;37.570;2022-09-09T08:52:31;1.70;;;0.60;;
37791;SDS011;29527;55.766;37.570;2022-09-09T08:55:25;0.90;;;0.70;;
37791;SDS011;29527;55.766;37.570;2022-09-09T08:57:53;3.20;;;0.93;;
37791;SDS011;29527;55.766;37.570;2022-09-09T09:00:22;1.05;;;0.60;;
37791;SDS011;29527;55.766;37.570;2022-09-09T09:03:06;1.52;;;0.70;;
37791;SDS011;29527;55.766;37.570;2022-09-09T09:06:06;1.65;;;0.88;;
37791;SDS011;29527;55.766;37.570;2022-09-09T09:08:29;0.85;;;0.60;;
37791;SDS011;29527;55.766;37.570;2022-09-09T09:10:58;1.27;;;0.80;;
37791;SDS011;29527;55.766;37.570;2022-09-09T09:18:49;2.90;;;1.00;;
37791;SDS011;29527;55.766;37.570;2022-09-09T09:21:19;1.05;;;0.70;;
37791;SDS011;29527;55.766;37.570;2022-09-09T09:24:13;0.90;;;0.73;;
37791;SDS011;29527;55.766;37.570;2022-09-09T09:26:44;0.73;;;0.60;;
37791;SDS011;29527;55.766;37.570;2022-09-09T09:29:10;3.08;;;0.70;;
37791;SDS011;29527;55.766;37.570;2022-09-09T09:31:48;3.60;;;0.95;;
37791;SDS011;29527;55.766;37.570;2022-09-09T09:34:20;2.50;;;0.70;;
37791;SDS011;29527;55.766;37.570;2022-09-09T09:36:52;3.50;;;0.70;;
37791;SDS011;29527;55.766;37.570;2022-09-09T09:39:36;0.77;;;0.77;;
37791;SDS011;29527;55.766;37.570;2022-09-09T09:42:10;3.33;;;0.70;;
37791;SDS011;29527;55.766;37.570;2022-09-09T09:49:51;3.47;;;0.60;;
37791;SDS011;29527;55.766;37.570;2022-09-09T09:52:30;1.23;;;0.85;;
37791;SDS011;29527;55.766;37.570;2022-09-09T09:54:56;1.88;;;0.60;;
37791;SDS011;29527;55.766;37.570;2022-09-09T09:57:26;0.90;;;0.60;;
37791;SDS011;29527;55.766;37.570;2022-09-09T10:00:14;2.35;;;0.80;;
37791;SDS011;29527;55.766;37.570;2022-09-09T10:02:43;0.90;;;0.75;;
37791;SDS011;29527;55.766;37.570;2022-09-09T10:07:40;3.97;;;0.90;;
37791;SDS011;29527;55.766;37.570;2022-09-09T10:10:10;2.00;;;0.90;;
37791;SDS011;29527;55.766;37.570;2022-09-09T10:18:02;2.20;;;1.45;;
37791;SDS011;29527;55.766;37.570;2022-09-09T10:20:49;4.32;;;1.60;;
37791;SDS011;29527;55.766;37.570;2022-09-09T10:32:40;1.50;;;0.82;;
37791;SDS011;29527;55.766;37.570;2022-09-09T10:35:27;2.15;;;1.10;;
37791;SDS011;29527;55.766;37.570;2022-09-09T10:41:31;3.08;;;1.00;;
37791;SDS011;29527;55.766;37.570;2022-09-09T10:50:17;3.17;;;0.90;;
37791;SDS011;29527;55.766;37.570;2022-09-09T10:55:19;1.95;;;0.80;;
37791;SDS011;29527;55.766;37.570;2022-09-09T10:57:51;1.08;;;0.73;;
37791;SDS011;29527;55.766;37.570;2022-09-09T11:00:20;1.40;;;0.80;;
37791;SDS011;29527;55.766;37.570;2022-09-09T11:03:02;1.13;;;0.68;;
37791;SDS011;29527;55.766;37.570;2022-09-09T11:05:49;0.85;;;0.80;;
37791;SDS011;29527;55.766;37.570;2022-09-09T11:13:49;2.00;;;1.10;;
37791;SDS011;29527;55.766;37.570;2022-09-09T11:16:22;2.72;;;1.20;;
37791;SDS011;29527;55.766;37.570;2022-09-09T11:18:50;3.33;;;0.98;;
37791;SDS011;29527;55.766;37.570;2022-09-09T11:21:32;1.88;;;1.00;;
37791;SDS011;29527;55.766;37.570;2022-09-09T11:24:10;3.00;;;1.20;;
37791;SDS011;29527;55.766;37.570;2022-09-09T11:26:49;3.63;;;1.27;;
37791;SDS011;29527;55.766;37.570;2022-09-09T11:42:33;2.08;;;1.13;;
37791;SDS011;29527;55.766;37.570;2022-09-09T11:45:08;3.17;;;1.10;;
37791;SDS011;29527;55.766;37.570;2022-09-09T11:47:36;1.08;;;0.73;;
37791;SDS011;29527;55.766;37.570;2022-09-09T11:52:40;1.27;;;0.98;;
37791;SDS011;29527;55.766;37.570;2022-09-09T11:58:04;1.95;;;0.85;;
37791;SDS011;29527;55.766;37.570;2022-09-09T12:00:47;5.65;;;1.20;;
37791;SDS011;29527;55.766;37.570;2022-09-09T12:06:08;1.73;;;0.90;;
37791;SDS011;29527;55.766;37.570;2022-09-09T12:08:39;2.88;;;1.15;;
37791;SDS011;29527;55.766;37.570;2022-09-09T12:11:07;2.33;;;1.23;;
37791;SDS011;29527;55.766;37.570;2022-09-09T12:13:33;1.50;;;0.73;;
37791;SDS011;29527;55.766;37.570;2022-09-09T12:15:59;3.22;;;0.88;;
37791;SDS011;29527;55.766;37.570;2022-09-09T12:18:37;2.40;;;1.00;;
37791;SDS011;29527;55.766;37.570;2022-09-09T12:23:55;2.00;;;1.10;;
37791;SDS011;29527;55.766;37.570;2022-09-09T12:27:31;3.60;;;1.70;;
37791;SDS011;29527;55.766;37.570;2022-09-09T12:32:25;2.63;;;1.55;;
37791;SDS011;29527;55.766;37.570;2022-09-09T12:34:53;2.00;;;1.35;;
37791;SDS011;29527;55.766;37.570;2022-09-09T12:37:58;3.33;;;0.90;;
37791;SDS011;29527;55.766;37.570;2022-09-09T12:40:28;3.53;;;1.10;;
37791;SDS011;29527;55.766;37.570;2022-09-09T12:43:00;4.72;;;1.13;;
37791;SDS011;29527;55.766;37.570;2022-09-09T12:45:31;2.40;;;0.93;;
37791;SDS011;29527;55.766;37.570;2022-09-09T12:50:27;4.75;;;1.10;;
37791;SDS011;29527;55.766;37.570;2022-09-09T12:52:55;2.53;;;1.17;;
37791;SDS011;29527;55.766;37.570;2022-09-09T12:55:25;1.52;;;0.80;;
37791;SDS011;29527;55.766;37.570;2022-09-09T12:57:55;1.23;;;0.75;;
37791;SDS011;29527;55.766;37.570;2022-09-09T13:00:23;2.67;;;1.00;;
37791;SDS011;29527;55.766;37.570;2022-09-09T13:05:27;3.50;;;0.88;;
37791;SDS011;29527;55.766;37.570;2022-09-09T13:08:02;1.70;;;1.10;;
37791;SDS011;29527;55.766;37.570;2022-09-09T13:13:19;2.55;;;1.02;;
37791;SDS011;29527;55.766;37.570;2022-09-09T13:15:57;4.30;;;1.10;;
37791;SDS011;29527;55.766;37.570;2022-09-09T13:18:45;1.75;;;0.90;;
37791;SDS011;29527;55.766;37.570;2022-09-09T13:21:11;2.13;;;0.70;;
37791;SDS011;29527;55.766;37.570;2022-09-09T13:23:38;1.17;;;0.73;;
37791;SDS011;29527;55.766;37.570;2022-09-09T13:26:05;4.72;;;0.80;;
37791;SDS011;29527;55.766;37.570;2022-09-09T13:28:46;2.65;;;0.90;;
37791;SDS011;29527;55.766;37.570;2022-09-09T13:31:19;3.05;;;0.90;;
37791;SDS011;29527;55.766;37.570;2022-09-09T13:33:56;3.20;;;1.20;;
37791;SDS011;29527;55.766;37.570;2022-09-09T13:36:32;9.07;;;1.40;;
37791;SDS011;29527;55.766;37.570;2022-09-09T13:39:00;1.65;;;0.80;;
37791;SDS011;29527;55.766;37.570;2022-09-09T13:41:35;5.13;;;2.60;;
37791;SDS011;29527;55.766;37.570;2022-09-09T13:44:04;3.35;;;0.65;;
37791;SDS011;29527;55.766;37.570;2022-09-09T13:46:35;2.50;;;0.82;;
37791;SDS011;29527;55.766;37.570;2022-09-09T13:51:34;2.33;;;1.08;;
37791;SDS011;29527;55.766;37.570;2022-09-09T13:54:05;2.55;;;0.60;;
37791;SDS011;29527;55.766;37.570;2022-09-09T13:56:33;1.42;;;0.80;;
37791;SDS011;29527;55.766;37.570;2022-09-09T13:59:00;3.13;;;0.90;;
37791;SDS011;29527;55.766;37.570;2022-09-09T14:01:26;1.58;;;1.00;;
37791;SDS011;29527;55.766;37.570;2022-09-09T14:03:52;2.38;;;0.82;;
37791;SDS011;29527;55.766;37.570;2022-09-09T14:06:18;4.80;;;1.02;;
37791;SDS011;29527;55.766;37.570;2022-09-09T14:08:47;2.78;;;1.00;;
37791;SDS011;29527;55.766;37.570;2022-09-09T14:11:15;1.67;;;0.70;;
37791;SDS011;29527;55.766;37.570;2022-09-09T14:13:41;1.58;;;0.80;;
37791;SDS011;29527;55.766;37.570;2022-09-09T14:16:06;2.10;;;0.50;;
37791;SDS011;29527;55.766;37.570;2022-09-09T14:18:32;3.83;;;0.80;;
37791;SDS011;29527;55.766;37.570;2022-09-09T14:20:59;1.70;;;0.80;;
37791;SDS011;29527;55.766;37.570;2022-09-09T14:23:24;3.45;;;0.90;;
37791;SDS011;29527;55.766;37.570;2022-09-09T14:25:50;2.97;;;0.95;;
37791;SDS011;29527;55.766;37.570;2022-09-09T14:28:16;3.53;;;1.75;;
37791;SDS011;29527;55.766;37.570;2022-09-09T14:30:42;4.28;;;1.40;;
37791;SDS011;29527;55.766;37.570;2022-09-09T14:33:10;3.35;;;1.30;;
37791;SDS011;29527;55.766;37.570;2022-09-09T14:35:37;1.48;;;1.10;;
37791;SDS011;29527;55.766;37.570;2022-09-09T14:38:03;1.83;;;1.15;;
37791;SDS011;29527;55.766;37.570;2022-09-09T14:40:29;3.97;;;2.20;;
37791;SDS011;29527;55.766;37.570;2022-09-09T14:42:55;2.22;;;1.67;;
37791;SDS011;29527;55.766;37.570;2022-09-09T14:45:22;2.03;;;1.65;;
37791;SDS011;29527;55.766;37.570;2022-09-09T14:47:50;2.85;;;1.58;;
37791;SDS011;29527;55.766;37.570;2022-09-09T14:50:16;3.88;;;1.70;;
37791;SDS011;29527;55.766;37.570;2022-09-09T14:52:42;2.00;;;1.70;;
37791;SDS011;29527;55.766;37.570;2022-09-09T14:55:08;2.70;;;1.80;;
37791;SDS011;29527;55.766;37.570;2022-09-09T14:57:35;3.20;;;2.42;;
37791;SDS011;29527;55.766;37.570;2022-09-09T15:00:02;2.35;;;1.77;;
37791;SDS011;29527;55.766;37.570;2022-09-09T15:02:31;4.20;;;1.70;;
37791;SDS011;29527;55.766;37.570;2022-09-09T15:04:56;3.72;;;1.30;;
37791;SDS011;29527;55.766;37.570;2022-09-09T15:07:23;1.58;;;1.08;;
37791;SDS011;29527;55.766;37.570;2022-09-09T15:09:53;2.67;;;1.25;;
37791;SDS011;29527;55.766;37.570;2022-09-09T15:12:19;3.42;;;1.17;;
37791;SDS011;29527;55.766;37.570;2022-09-09T15:14:46;3.08;;;1.10;;
37791;SDS011;29527;55.766;37.570;2022-09-09T15:17:12;3.83;;;1.27;;
37791;SDS011;29527;55.766;37.570;2022-09-09T15:19:38;2.67;;;1.30;;
37791;SDS011;29527;55.766;37.570;2022-09-09T15:22:06;4.35;;;1.05;;
37791;SDS011;29527;55.766;37.570;2022-09-09T15:24:32;3.50;;;1.30;;
37791;SDS011;29527;55.766;37.570;2022-09-09T15:26:58;4.47;;;2.00;;
37791;SDS011;29527;55.766;37.570;2022-09-09T15:29:24;3.53;;;1.20;;
37791;SDS011;29527;55.766;37.570;2022-09-09T15:31:49;2.42;;;1.40;;
37791;SDS011;29527;55.766;37.570;2022-09-09T15:34:15;3.05;;;1.20;;
37791;SDS011;29527;55.766;37.570;2022-09-09T15:36:41;2.83;;;1.40;;
37791;SDS011;29527;55.766;37.570;2022-09-09T15:39:09;1.65;;;1.17;;
37791;SDS011;29527;55.766;37.570;2022-09-09T15:41:44;4.03;;;1.50;;
37791;SDS011;29527;55.766;37.570;2022-09-09T15:44:10;6.22;;;1.30;;
37791;SDS011;29527;55.766;37.570;2022-09-09T15:46:38;3.72;;;1.48;;
37791;SDS011;29527;55.766;37.570;2022-09-09T15:49:15;3.17;;;1.40;;
37791;SDS011;29527;55.766;37.570;2022-09-09T15:51:46;3.20;;;1.20;;
37791;SDS011;29527;55.766;37.570;2022-09-09T15:54:16;5.78;;;1.65;;
37791;SDS011;29527;55.766;37.570;2022-09-09T15:56:43;3.72;;;1.20;;
37791;SDS011;29527;55.766;37.570;2022-09-09T15:59:10;2.88;;;1.50;;
37791;SDS011;29527;55.766;37.570;2022-09-09T16:01:36;2.30;;;1.30;;
37791;SDS011;29527;55.766;37.570;2022-09-09T16:04:04;4.78;;;1.50;;
37791;SDS011;29527;55.766;37.570;2022-09-09T16:06:30;2.80;;;1.20;;
37791;SDS011;29527;55.766;37.570;2022-09-09T16:08:56;3.63;;;1.52;;
37791;SDS011;29527;55.766;37.570;2022-09-09T16:11:30;6.18;;;1.83;;
37791;SDS011;29527;55.766;37.570;2022-09-09T16:13:57;2.22;;;1.60;;
37791;SDS011;29527;55.766;37.570;2022-09-09T16:16:24;4.28;;;2.08;;
37791;SDS011;29527;55.766;37.570;2022-09-09T16:18:53;5.47;;;3.60;;
37791;SDS011;29527;55.766;37.570;2022-09-09T16:21:21;4.80;;;3.58;;
37791;SDS011;29527;55.766;37.570;2022-09-09T16:23:49;9.05;;;3.60;;
37791;SDS011;29527;55.766;37.570;2022-09-09T16:26:18;8.15;;;3.40;;
37791;SDS011;29527;55.766;37.570;2022-09-09T16:28:44;7.53;;;3.10;;
37791;SDS011;29527;55.766;37.570;2022-09-09T16:31:13;6.80;;;3.70;;
37791;SDS011;29527;55.766;37.570;2022-09-09T16:33:41;5.55;;;3.03;;
37791;SDS011;29527;55.766;37.570;2022-09-09T16:36:11;4.55;;;2.80;;
37791;SDS011;29527;55.766;37.570;2022-09-09T16:38:38;8.88;;;3.28;;
37791;SDS011;29527;55.766;37.570;2022-09-09T16:41:05;5.63;;;2.60;;
37791;SDS011;29527;55.766;37.570;2022-09-09T16:43:32;3.40;;;2.10;;
37791;SDS011;29527;55.766;37.570;2022-09-09T16:45:59;3.53;;;2.10;;
37791;SDS011;29527;55.766;37.570;2022-09-09T16:48:30;5.78;;;2.60;;
37791;SDS011;29527;55.766;37.570;2022-09-09T16:51:17;7.47;;;2.60;;
37791;SDS011;29527;55.766;37.570;2022-09-09T16:56:10;4.07;;;2.40;;
37791;SDS011;29527;55.766;37.570;2022-09-09T16:58:37;4.15;;;2.50;;
37791;SDS011;29527;55.766;37.570;2022-09-09T17:01:03;5.28;;;2.65;;
37791;SDS011;29527;55.766;37.570;2022-09-09T17:03:29;7.40;;;2.75;;
37791;SDS011;29527;55.766;37.570;2022-09-09T17:05:56;6.95;;;2.60;;
37791;SDS011;29527;55.766;37.570;2022-09-09T17:08:23;6.97;;;2.90;;
37791;SDS011;29527;55.766;37.570;2022-09-09T17:10:49;5.57;;;2.50;;
37791;SDS011;29527;55.766;37.570;2022-09-09T17:13:15;6.65;;;2.60;;
37791;SDS011;29527;55.766;37.570;2022-09-09T17:15:45;5.10;;;2.45;;
37791;SDS011;29527;55.766;37.570;2022-09-09T17:18:11;7.40;;;2.50;;
37791;SDS011;29527;55.766;37.570;2022-09-09T17:20:41;6.60;;;2.40;;
37791;SDS011;29527;55.766;37.570;2022-09-09T17:23:07;4.35;;;2.50;;
37791;SDS011;29527;55.766;37.570;2022-09-09T17:25:34;9.18;;;2.50;;